Time;durP1;ratioP1;P1;durP2;ratioP2;P2;SDS_P1;SDS_P2;PMS_P1;PMS_P2;Temp;Humidity;BMP_temperature;BMP_pressure;BME280_temperature;BME280_humidity;BME280_pressure;Samples;Min_cycle;Max_cycle;Signal;HPM_P1;HPM_P2
2023/12/08 00:02:13;;;;;;;;;;;;;;;3.83;100.00;99199.64;67910;1274;1016471;-71
2023/12/08 00:05:16;;;;;;;;;;;;;;;3.75;100.00;99200.71;67881;1274;1016583;-70
2023/12/08 00:08:18;;;;;;;;;;;;;;;3.68;100.00;99204.70;67947;1274;1016432;-70
2023/12/08 00:11:41;;;;;;;;;;;;;;;3.65;100.00;99203.77;67955;1273;1017416;-70
2023/12/08 00:14:46;;;;;;;;;;;;;;;3.66;100.00;99204.94;67914;1274;1016455;-70
2023/12/08 00:17:48;;;;;;;;;;;;;;;3.60;100.00;99213.05;67972;1274;1016233;-70
2023/12/08 00:20:51;;;;;;;;;;;;;;;3.65;100.00;99223.47;67983;1273;1015779;-70
2023/12/08 00:23:53;;;;;;;;;;;;;;;3.63;100.00;99225.60;67935;1274;1018555;-70
2023/12/08 00:26:56;;;;;;;;;;;;;;;3.52;100.00;99225.54;67931;1273;1016380;-71
2023/12/08 00:29:58;;;;;;;;;;;;;;;3.43;100.00;99226.47;67993;1274;1016367;-71
2023/12/08 00:33:02;;;;;;;;;;;;;;;3.49;100.00;99229.61;67965;1274;1016301;-70
2023/12/08 00:36:05;;;;;;;;;;;;;;;3.47;100.00;99233.80;68017;1273;1016070;-70
2023/12/08 00:39:08;;;;;;;;;;;;;;;3.40;100.00;99222.72;67973;1274;1016337;-71
2023/12/08 00:42:10;;;;;;;;;;;;;;;3.36;100.00;99220.77;67996;1273;1016474;-70
2023/12/08 00:45:13;;;;;;;;;;;;;;;3.36;100.00;99230.27;67978;1274;1016892;-71
2023/12/08 00:48:16;;;;;;;;;;;;;;;3.35;100.00;99246.20;67923;1274;1016426;-71
2023/12/08 00:51:18;;;;;;;;;;;;;;;3.21;100.00;99247.59;67971;1273;1015862;-70
2023/12/08 00:54:21;;;;;;;;;;;;;;;3.08;100.00;99250.48;67991;1273;1016191;-70
2023/12/08 00:57:25;;;;;;;;;;;;;;;3.14;100.00;99248.44;68010;1273;1016370;-71
2023/12/08 01:00:28;;;;;;;;;;;;;;;3.15;100.00;99247.02;67953;1274;1016433;-71
2023/12/08 01:03:30;;;;;;;;;;;;;;;3.14;100.00;99247.40;67966;1274;1016413;-70
2023/12/08 01:06:54;;;;;;;;;;;;;;;3.15;100.00;99243.56;67945;1273;1016590;-71
2023/12/08 01:09:56;;;;;;;;;;;;;;;3.14;100.00;99244.12;67957;1273;1016495;-71
2023/12/08 01:12:59;;;;;;;;;;;;;;;3.24;100.00;99249.23;67999;1273;1016684;-71
2023/12/08 01:16:01;;;;;;;;;;;;;;;3.23;100.00;99251.85;67983;1273;1016386;-71
2023/12/08 01:19:04;;;;;;;;;;;;;;;3.16;100.00;99252.54;67985;1274;1016159;-71
2023/12/08 01:22:07;;;;;;;;;;;;;;;3.11;100.00;99250.23;67925;1273;1016468;-71
2023/12/08 01:25:09;;;;;;;;;;;;;;;3.09;100.00;99249.05;67963;1274;1016120;-71
2023/12/08 01:28:12;;;;;;;;;;;;;;;3.11;100.00;99244.88;67965;1273;1016590;-71
2023/12/08 01:31:17;;;;;;;;;;;;;;;3.14;100.00;99238.73;67951;1273;1016437;-70
2023/12/08 01:34:20;;;;;;;;;;;;;;;3.09;100.00;99238.88;67987;1273;1016244;-71
2023/12/08 01:37:23;;;;;;;;;;;;;;;3.13;100.00;99239.64;67957;1274;1016287;-70
2023/12/08 01:40:25;;;;;;;;;;;;;;;3.05;100.00;99240.00;67976;1273;1016455;-70
2023/12/08 01:43:28;;;;;;;;;;;;;;;3.01;100.00;99241.13;67982;1273;1016378;-71
2023/12/08 01:46:30;;;;;;;;;;;;;;;3.04;100.00;99238.63;67934;1274;1016196;-70
2023/12/08 01:49:33;;;;;;;;;;;;;;;2.94;100.00;99231.95;67971;1273;1016129;-70
2023/12/08 01:52:35;;;;;;;;;;;;;;;2.89;100.00;99225.16;67988;1274;1016283;-71
2023/12/08 01:55:38;;;;;;;;;;;;;;;2.86;100.00;99226.45;67984;1274;1016195;-70
2023/12/08 01:58:41;;;;;;;;;;;;;;;2.91;100.00;99228.05;67973;1274;1016419;-70
2023/12/08 02:01:43;;;;;;;;;;;;;;;2.99;100.00;99225.80;67985;1273;1016412;-70
2023/12/08 02:04:46;;;;;;;;;;;;;;;3.02;100.00;99226.59;67977;1273;1016273;-70
2023/12/08 02:07:48;;;;;;;;;;;;;;;3.02;100.00;99226.76;67977;1274;1016528;-70
2023/12/08 02:10:51;;;;;;;;;;;;;;;3.13;100.00;99227.39;67962;1273;1016432;-70
2023/12/08 02:13:55;;;;;;;;;;;;;;;3.12;100.00;99231.20;67960;1273;1017167;-70
2023/12/08 02:16:58;;;;;;;;;;;;;;;3.08;100.00;99229.04;67992;1274;1018631;-71
2023/12/08 02:20:05;;;;;;;;;;;;;;;3.08;100.00;99225.58;67988;1274;1016502;-70
2023/12/08 02:23:09;;;;;;;;;;;;;;;3.11;100.00;99223.78;67999;1274;1016645;-71
2023/12/08 02:26:11;;;;;;;;;;;;;;;2.97;100.00;99229.83;67998;1273;1017843;-71
2023/12/08 02:29:14;;;;;;;;;;;;;;;2.96;100.00;99233.98;67995;1274;1016419;-70
2023/12/08 02:32:17;;;;;;;;;;;;;;;2.91;100.00;99237.58;67925;1274;1016152;-70
2023/12/08 02:35:19;;;;;;;;;;;;;;;2.89;100.00;99237.77;67929;1274;1016794;-70
2023/12/08 02:38:22;;;;;;;;;;;;;;;2.91;100.00;99237.72;67954;1274;1016213;-70
2023/12/08 02:41:24;;;;;;;;;;;;;;;2.89;100.00;99233.28;67991;1273;1016121;-70
2023/12/08 02:44:27;;;;;;;;;;;;;;;2.94;100.00;99228.35;67939;1273;1016027;-71
2023/12/08 02:47:29;;;;;;;;;;;;;;;2.96;100.00;99227.95;67958;1273;1016429;-70
2023/12/08 02:50:32;;;;;;;;;;;;;;;2.94;100.00;99227.64;67957;1273;1016822;-70
2023/12/08 02:53:34;;;;;;;;;;;;;;;3.02;100.00;99225.38;67942;1273;1016441;-70
2023/12/08 02:56:37;;;;;;;;;;;;;;;3.06;100.00;99227.87;67934;1274;1018069;-71
2023/12/08 02:59:40;;;;;;;;;;;;;;;3.12;100.00;99229.64;67965;1273;1016461;-71
2023/12/08 03:02:42;;;;;;;;;;;;;;;3.01;100.00;99236.11;67912;1274;1016222;-70
2023/12/08 03:05:45;;;;;;;;;;;;;;;3.03;100.00;99240.41;67905;1274;1016374;-70
2023/12/08 03:08:47;;;;;;;;;;;;;;;3.01;100.00;99243.89;67913;1273;1016371;-70
2023/12/08 03:11:50;;;;;;;;;;;;;;;2.91;100.00;99249.81;67936;1273;1019317;-70
2023/12/08 03:18:16;;;;;;;;;;;;;;;2.98;100.00;99244.83;67919;1273;1016527;-70
2023/12/08 03:21:18;;;;;;;;;;;;;;;2.96;100.00;99239.71;67959;1273;1016545;-70
2023/12/08 03:24:21;;;;;;;;;;;;;;;3.01;100.00;99236.46;67922;1274;1016367;-70
2023/12/08 03:27:23;;;;;;;;;;;;;;;3.03;100.00;99229.86;67945;1273;1016665;-70
2023/12/08 03:30:26;;;;;;;;;;;;;;;3.11;100.00;99232.27;67925;1273;1016393;-70
2023/12/08 03:33:28;;;;;;;;;;;;;;;3.03;100.00;99236.95;67928;1274;1016419;-70
2023/12/08 03:36:31;;;;;;;;;;;;;;;2.98;100.00;99243.98;67951;1274;1016357;-70
2023/12/08 03:39:33;;;;;;;;;;;;;;;3.00;100.00;99242.38;67912;1273;1015720;-70
2023/12/08 03:42:36;;;;;;;;;;;;;;;3.02;100.00;99246.81;67929;1273;1016395;-70
2023/12/08 03:45:39;;;;;;;;;;;;;;;2.99;100.00;99249.84;67896;1274;1016503;-70
2023/12/08 03:48:42;;;;;;;;;;;;;;;2.88;100.00;99244.52;67906;1273;1016503;-70
2023/12/08 03:51:44;;;;;;;;;;;;;;;2.88;100.00;99237.45;67935;1274;1016488;-70
2023/12/08 03:54:47;;;;;;;;;;;;;;;2.93;100.00;99236.14;67929;1274;1016511;-70
2023/12/08 03:57:50;;;;;;;;;;;;;;;2.85;100.00;99237.35;67925;1274;1016526;-70
2023/12/08 04:00:52;;;;;;;;;;;;;;;2.85;100.00;99235.13;67920;1273;1016673;-71
2023/12/08 04:03:55;;;;;;;;;;;;;;;2.90;100.00;99238.28;67965;1274;1016459;-70
2023/12/08 04:06:57;;;;;;;;;;;;;;;2.90;100.00;99231.55;67910;1274;1016306;-70
2023/12/08 04:10:00;;;;;;;;;;;;;;;2.94;100.00;99227.29;67916;1274;1019231;-70
2023/12/08 04:13:03;;;;;;;;;;;;;;;2.99;100.00;99224.23;67906;1273;1017811;-70
2023/12/08 04:16:06;;;;;;;;;;;;;;;2.93;100.00;99216.61;67926;1273;1018164;-70
2023/12/08 04:19:09;;;;;;;;;;;;;;;2.98;100.00;99213.90;67969;1274;1019048;-70
2023/12/08 04:22:32;;;;;;;;;;;;;;;2.98;100.00;99208.21;67925;1274;1019858;-70
2023/12/08 04:25:35;;;;;;;;;;;;;;;2.89;100.00;99204.61;67972;1274;1016922;-71
2023/12/08 04:28:38;;;;;;;;;;;;;;;2.88;100.00;99208.98;67900;1273;1016586;-70
2023/12/08 04:31:40;;;;;;;;;;;;;;;2.79;100.00;99205.55;68030;1273;1019641;-70
2023/12/08 04:34:43;;;;;;;;;;;;;;;2.80;100.00;99206.19;67945;1273;1016350;-71
2023/12/08 04:37:45;;;;;;;;;;;;;;;2.84;100.00;99205.94;67923;1274;1016485;-70
2023/12/08 04:40:48;;;;;;;;;;;;;;;2.73;100.00;99209.30;67909;1274;1016340;-70
2023/12/08 04:43:51;;;;;;;;;;;;;;;2.78;100.00;99202.47;68012;1273;1017713;-70
2023/12/08 04:46:53;;;;;;;;;;;;;;;2.79;100.00;99201.91;67956;1274;1016184;-70
2023/12/08 04:49:56;;;;;;;;;;;;;;;2.74;100.00;99202.71;68008;1273;1016820;-70
2023/12/08 04:52:59;;;;;;;;;;;;;;;2.78;100.00;99201.06;67968;1274;1016409;-70
2023/12/08 04:56:02;;;;;;;;;;;;;;;2.78;100.00;99198.99;67922;1274;1016545;-70
2023/12/08 04:59:05;;;;;;;;;;;;;;;2.73;100.00;99203.43;67942;1273;1016327;-70
2023/12/08 05:02:07;;;;;;;;;;;;;;;2.74;100.00;99204.62;67957;1274;1016056;-70
2023/12/08 05:05:10;;;;;;;;;;;;;;;2.77;100.00;99207.48;67945;1274;1018051;-70
2023/12/08 05:08:12;;;;;;;;;;;;;;;2.78;100.00;99209.20;67937;1273;1016190;-70
2023/12/08 05:11:15;;;;;;;;;;;;;;;2.61;100.00;99205.06;67934;1274;1016502;-70
2023/12/08 05:14:19;;;;;;;;;;;;;;;2.56;100.00;99208.46;67920;1273;1016290;-70
2023/12/08 05:17:30;;;;;;;;;;;;;;;2.46;100.00;99209.73;67987;1273;1017972;-70
2023/12/08 05:20:33;;;;;;;;;;;;;;;2.37;100.00;99204.21;67957;1273;1016273;-70
2023/12/08 05:23:35;;;;;;;;;;;;;;;2.29;100.00;99202.50;67978;1274;1016275;-70
2023/12/08 05:26:38;;;;;;;;;;;;;;;2.36;100.00;99197.17;65407;1274;5394128;-70
2023/12/08 05:29:40;;;;;;;;;;;;;;;2.39;100.00;99190.20;67976;1273;1016411;-71
2023/12/08 05:32:43;;;;;;;;;;;;;;;2.37;100.00;99182.48;67945;1273;1016214;-71
2023/12/08 05:35:46;;;;;;;;;;;;;;;2.35;100.00;99180.10;67966;1274;1016511;-71
2023/12/08 05:38:48;;;;;;;;;;;;;;;2.38;100.00;99183.33;67951;1274;1016426;-70
2023/12/08 05:41:51;;;;;;;;;;;;;;;2.29;100.00;99192.65;67920;1274;1016346;-70
2023/12/08 05:44:53;;;;;;;;;;;;;;;2.29;100.00;99195.26;67900;1273;1016358;-70
2023/12/08 05:47:56;;;;;;;;;;;;;;;2.34;100.00;99187.72;67924;1273;1020105;-70
2023/12/08 05:50:58;;;;;;;;;;;;;;;2.38;100.00;99187.97;67951;1273;1016320;-70
2023/12/08 05:54:01;;;;;;;;;;;;;;;2.44;100.00;99190.80;67885;1274;1016179;-71
2023/12/08 05:57:03;;;;;;;;;;;;;;;2.47;100.00;99192.62;67891;1274;1016467;-71
2023/12/08 06:00:09;;;;;;;;;;;;;;;2.45;100.00;99190.94;67923;1274;1016239;-70
2023/12/08 06:03:13;;;;;;;;;;;;;;;2.38;100.00;99187.11;67887;1273;1016370;-70
2023/12/08 06:06:16;;;;;;;;;;;;;;;2.36;100.00;99193.20;67916;1274;1016422;-70
2023/12/08 06:09:19;;;;;;;;;;;;;;;2.49;100.00;99197.23;67903;1274;1016069;-70
2023/12/08 06:12:21;;;;;;;;;;;;;;;2.59;100.00;99196.85;67901;1274;1016161;-70
2023/12/08 06:15:24;;;;;;;;;;;;;;;2.61;100.00;99194.55;67859;1274;1016598;-70
2023/12/08 06:18:26;;;;;;;;;;;;;;;2.57;100.00;99190.14;67868;1273;1016378;-70
2023/12/08 06:21:29;;;;;;;;;;;;;;;2.59;100.00;99186.30;67931;1273;1016430;-70
2023/12/08 06:24:31;;;;;;;;;;;;;;;2.54;100.00;99188.31;67866;1273;1016327;-70
2023/12/08 06:27:34;;;;;;;;;;;;;;;2.51;100.00;99190.47;67895;1274;1016230;-70
2023/12/08 06:30:36;;;;;;;;;;;;;;;2.44;100.00;99193.19;67868;1274;1016428;-70
2023/12/08 06:33:40;;;;;;;;;;;;;;;2.39;100.00;99191.05;67939;1273;1015743;-70
2023/12/08 06:36:42;;;;;;;;;;;;;;;2.33;100.00;99189.48;67863;1274;1016166;-70
2023/12/08 06:39:45;;;;;;;;;;;;;;;2.32;100.00;99186.38;67900;1273;1016297;-70
2023/12/08 06:42:47;;;;;;;;;;;;;;;2.37;100.00;99191.10;67875;1273;1016362;-70
2023/12/08 06:45:50;;;;;;;;;;;;;;;2.31;100.00;99191.75;67898;1273;1016461;-70
2023/12/08 06:48:53;;;;;;;;;;;;;;;2.34;100.00;99202.75;67884;1274;1016472;-71
2023/12/08 06:51:55;;;;;;;;;;;;;;;2.38;100.00;99201.42;67904;1274;1018653;-70
2023/12/08 06:54:58;;;;;;;;;;;;;;;2.46;100.00;99199.21;67897;1274;1016454;-70
2023/12/08 06:58:00;;;;;;;;;;;;;;;2.43;100.00;99194.43;67914;1273;1016311;-70
2023/12/08 07:01:03;;;;;;;;;;;;;;;2.37;100.00;99192.48;67939;1273;1016387;-70
2023/12/08 07:04:05;;;;;;;;;;;;;;;2.35;100.00;99198.05;67932;1274;1016125;-70
2023/12/08 07:07:08;;;;;;;;;;;;;;;2.32;100.00;99197.09;67887;1273;1016324;-70
2023/12/08 07:10:11;;;;;;;;;;;;;;;2.30;100.00;99194.37;67951;1274;1016591;-70
2023/12/08 07:13:14;;;;;;;;;;;;;;;2.35;100.00;99194.08;67937;1273;1016369;-70
2023/12/08 07:16:16;;;;;;;;;;;;;;;2.34;100.00;99199.96;67879;1273;1016471;-71
2023/12/08 07:19:21;;;;;;;;;;;;;;;2.40;100.00;99209.17;67945;1274;1016473;-71
2023/12/08 07:22:23;;;;;;;;;;;;;;;2.47;100.00;99212.98;67908;1274;1016455;-70
2023/12/08 07:25:36;;;;;;;;;;;;;;;;;;;;;
2023/12/08 07:28:49;;;;;;;;;;;;;;;2.49;100.00;99217.45;67871;1274;1016176;-70
2023/12/08 07:31:51;;;;;;;;;;;;;;;2.53;100.00;99220.45;67904;1274;1016265;-70
2023/12/08 07:34:54;;;;;;;;;;;;;;;2.62;100.00;99220.42;67866;1274;1016245;-70
2023/12/08 07:37:56;;;;;;;;;;;;;;;2.57;100.00;99218.80;67864;1274;1016419;-70
2023/12/08 07:40:59;;;;;;;;;;;;;;;2.67;100.00;99210.48;67912;1273;1016348;-70
2023/12/08 07:44:02;;;;;;;;;;;;;;;2.67;100.00;99208.05;67907;1274;1016377;-71
2023/12/08 07:47:04;;;;;;;;;;;;;;;2.59;100.00;99212.54;67888;1273;1016298;-71
2023/12/08 07:50:07;;;;;;;;;;;;;;;2.63;100.00;99219.55;67863;1274;1016404;-71
2023/12/08 07:53:10;;;;;;;;;;;;;;;2.53;100.00;99219.94;67893;1274;1020042;-71
2023/12/08 07:56:13;;;;;;;;;;;;;;;2.56;100.00;99222.98;67937;1274;1016220;-71
2023/12/08 07:59:15;;;;;;;;;;;;;;;2.74;100.00;99227.25;67889;1274;1016424;-71
2023/12/08 08:02:18;;;;;;;;;;;;;;;2.76;100.00;99226.84;67930;1273;1018159;-70
2023/12/08 08:05:20;;;;;;;;;;;;;;;2.73;100.00;99229.50;67887;1273;1015912;-70
2023/12/08 08:08:23;;;;;;;;;;;;;;;2.81;100.00;99225.52;67888;1274;1016804;-70
2023/12/08 08:11:25;;;;;;;;;;;;;;;2.88;100.00;99231.23;67899;1274;1016358;-71
2023/12/08 08:14:28;;;;;;;;;;;;;;;2.90;100.00;99227.40;67906;1274;1016393;-71
2023/12/08 08:17:31;;;;;;;;;;;;;;;3.04;100.00;99220.15;67881;1274;1016422;-70
2023/12/08 08:20:34;;;;;;;;;;;;;;;3.25;100.00;99218.96;67890;1274;1016755;-71
2023/12/08 08:23:36;;;;;;;;;;;;;;;3.39;100.00;99216.17;67921;1274;1016417;-70
2023/12/08 08:26:39;;;;;;;;;;;;;;;3.43;100.00;99221.96;67873;1273;1018650;-70
2023/12/08 08:29:41;;;;;;;;;;;;;;;3.56;100.00;99228.89;67899;1274;1016479;-70
2023/12/08 08:32:44;;;;;;;;;;;;;;;3.64;100.00;99231.29;67906;1274;1016495;-70
2023/12/08 08:35:47;;;;;;;;;;;;;;;3.55;100.00;99231.17;67916;1274;1016026;-70
2023/12/08 08:38:50;;;;;;;;;;;;;;;3.43;100.00;99217.82;67900;1274;1016259;-70
2023/12/08 08:41:53;;;;;;;;;;;;;;;3.29;100.00;99218.34;67919;1274;1016249;-70
2023/12/08 08:44:56;;;;;;;;;;;;;;;3.15;100.00;99209.00;67936;1274;1016427;-70
2023/12/08 08:47:59;;;;;;;;;;;;;;;3.12;100.00;99207.70;67927;1274;1016515;-70
2023/12/08 08:51:01;;;;;;;;;;;;;;;3.21;100.00;99204.73;67921;1274;1016471;-71
2023/12/08 08:54:04;;;;;;;;;;;;;;;3.25;100.00;99202.70;67928;1274;1016482;-70
2023/12/08 08:57:07;;;;;;;;;;;;;;;3.23;100.00;99207.75;67935;1274;1018361;-70
2023/12/08 09:00:12;;;;;;;;;;;;;;;3.29;100.00;99216.95;67901;1273;1016225;-71
2023/12/08 09:03:14;;;;;;;;;;;;;;;3.30;100.00;99230.42;67882;1274;1016516;-70
2023/12/08 09:06:20;;;;;;;;;;;;;;;3.24;100.00;99231.08;67918;1274;1016151;-70
2023/12/08 09:09:22;;;;;;;;;;;;;;;3.26;100.00;99231.90;67918;1274;1016314;-70
2023/12/08 09:12:25;;;;;;;;;;;;;;;3.27;100.00;99230.48;67914;1274;1016472;-70
2023/12/08 09:15:28;;;;;;;;;;;;;;;3.26;100.00;99229.66;67907;1274;1016308;-71
2023/12/08 09:18:30;;;;;;;;;;;;;;;3.26;100.00;99223.59;67918;1273;1016390;-71
2023/12/08 09:21:33;;;;;;;;;;;;;;;3.27;100.00;99222.88;67925;1274;1016393;-70
2023/12/08 09:24:35;;;;;;;;;;;;;;;3.26;100.00;99217.38;67877;1273;1016556;-71
2023/12/08 09:27:38;;;;;;;;;;;;;;;3.27;100.00;99215.44;67869;1274;1015969;-70
2023/12/08 09:30:42;;;;;;;;;;;;;;;3.33;100.00;99206.46;67898;1273;1016175;-70
2023/12/08 09:33:46;;;;;;;;;;;;;;;3.43;100.00;99192.92;67930;1274;1016096;-70
2023/12/08 09:36:49;;;;;;;;;;;;;;;3.45;100.00;99187.86;67904;1274;1016397;-70
2023/12/08 09:39:51;;;;;;;;;;;;;;;3.52;100.00;99178.34;67886;1274;1016395;-70
2023/12/08 09:42:54;;;;;;;;;;;;;;;3.59;100.00;99170.53;67936;1274;1017798;-70
2023/12/08 09:45:57;;;;;;;;;;;;;;;3.65;100.00;99170.91;67901;1274;1015791;-71
2023/12/08 09:49:00;;;;;;;;;;;;;;;3.68;100.00;99173.92;67879;1274;1016310;-70
2023/12/08 09:52:03;;;;;;;;;;;;;;;3.76;100.00;99172.31;67948;1274;1017764;-71
2023/12/08 09:55:05;;;;;;;;;;;;;;;3.78;100.00;99165.87;67880;1274;1016085;-70
2023/12/08 09:58:08;;;;;;;;;;;;;;;3.73;100.00;99155.98;67945;1274;1016398;-70
2023/12/08 10:01:13;;;;;;;;;;;;;;;3.60;100.00;99153.73;67893;1273;1016626;-70
2023/12/08 10:04:16;;;;;;;;;;;;;;;3.63;100.00;99156.58;67859;1274;1016435;-70
2023/12/08 10:07:19;;;;;;;;;;;;;;;3.70;100.00;99143.26;67899;1273;1018904;-70
2023/12/08 10:10:21;;;;;;;;;;;;;;;3.73;100.00;99140.77;67878;1275;1016472;-71
2023/12/08 10:13:24;;;;;;;;;;;;;;;3.68;100.00;99151.98;67904;1273;1016399;-70
2023/12/08 10:16:26;;;;;;;;;;;;;;;3.75;100.00;99144.50;67907;1273;1016137;-70
2023/12/08 10:19:29;;;;;;;;;;;;;;;3.63;100.00;99144.14;67920;1274;1016398;-70
2023/12/08 10:22:31;;;;;;;;;;;;;;;3.40;100.00;99153.59;67849;1274;1016333;-70
2023/12/08 10:25:34;;;;;;;;;;;;;;;3.31;100.00;99159.36;67909;1273;1018472;-71
2023/12/08 10:28:40;;;;;;;;;;;;;;;3.37;100.00;99161.95;67916;1273;1016363;-70
2023/12/08 10:31:42;;;;;;;;;;;;;;;3.36;100.00;99154.38;67910;1274;1015694;-71
2023/12/08 10:34:45;;;;;;;;;;;;;;;3.24;100.00;99151.22;67882;1274;1016796;-70
2023/12/08 10:37:47;;;;;;;;;;;;;;;3.10;100.00;99146.39;67860;1273;1016447;-71
2023/12/08 10:40:50;;;;;;;;;;;;;;;3.13;100.00;99142.02;67859;1274;1016309;-70
2023/12/08 10:43:53;;;;;;;;;;;;;;;3.13;100.00;99140.45;67894;1274;1016455;-70
2023/12/08 10:46:55;;;;;;;;;;;;;;;3.22;100.00;99144.02;67909;1274;1016308;-70
2023/12/08 10:49:58;;;;;;;;;;;;;;;3.37;100.00;99154.87;67879;1274;1016223;-70
2023/12/08 10:53:00;;;;;;;;;;;;;;;3.52;100.00;99157.08;67914;1274;1016483;-71
2023/12/08 10:56:03;;;;;;;;;;;;;;;3.43;100.00;99155.57;67912;1274;1016428;-71
2023/12/08 10:59:06;;;;;;;;;;;;;;;3.29;100.00;99159.56;67878;1274;1015985;-71
2023/12/08 11:02:09;;;;;;;;;;;;;;;3.22;100.00;99161.98;67852;1274;1015980;-71
2023/12/08 11:05:12;;;;;;;;;;;;;;;3.18;100.00;99159.33;67851;1274;1016335;-71
2023/12/08 11:08:15;;;;;;;;;;;;;;;3.20;100.00;99154.98;67906;1274;1016428;-71
2023/12/08 11:11:17;;;;;;;;;;;;;;;3.21;100.00;99148.89;67907;1274;1016061;-71
2023/12/08 11:14:20;;;;;;;;;;;;;;;3.22;100.00;99152.49;67865;1274;1016082;-70
2023/12/08 11:17:22;;;;;;;;;;;;;;;3.25;100.00;99152.58;67883;1274;1016496;-70
2023/12/08 11:20:25;;;;;;;;;;;;;;;3.24;100.00;99154.85;67886;1274;1016343;-71
2023/12/08 11:23:28;;;;;;;;;;;;;;;3.26;100.00;99151.86;67879;1274;1016417;-70
2023/12/08 11:26:31;;;;;;;;;;;;;;;3.26;100.00;99147.88;67865;1274;1016319;-70
2023/12/08 11:29:33;;;;;;;;;;;;;;;3.22;100.00;99143.00;67929;1273;1016409;-70
2023/12/08 11:32:36;;;;;;;;;;;;;;;3.25;100.00;99137.20;67927;1274;1016351;-70
2023/12/08 11:35:39;;;;;;;;;;;;;;;3.24;100.00;99129.96;67870;1274;1016488;-70
2023/12/08 11:38:41;;;;;;;;;;;;;;;3.13;100.00;99139.23;67923;1273;1016181;-70
2023/12/08 11:41:44;;;;;;;;;;;;;;;3.07;100.00;99134.04;67939;1274;1018697;-70
2023/12/08 11:44:47;;;;;;;;;;;;;;;3.08;100.00;99130.52;67862;1273;1016211;-70
2023/12/08 11:47:49;;;;;;;;;;;;;;;3.15;100.00;99126.92;67880;1274;1017171;-71
2023/12/08 11:50:52;;;;;;;;;;;;;;;3.13;100.00;99127.65;67918;1273;1016430;-71
2023/12/08 11:53:55;;;;;;;;;;;;;;;3.03;100.00;99126.69;67909;1274;1016725;-70
2023/12/08 11:56:58;;;;;;;;;;;;;;;2.94;100.00;99129.69;67884;1273;1016451;-70
2023/12/08 12:00:00;;;;;;;;;;;;;;;2.96;100.00;99126.89;67875;1274;1016478;-71
2023/12/08 12:03:03;;;;;;;;;;;;;;;3.01;100.00;99119.69;67844;1273;1016419;-71
2023/12/08 12:06:06;;;;;;;;;;;;;;;2.92;100.00;99114.36;67936;1274;1016361;-70
2023/12/08 12:09:09;;;;;;;;;;;;;;;2.89;100.00;99118.42;67897;1274;1016425;-71
2023/12/08 12:12:12;;;;;;;;;;;;;;;2.83;100.00;99121.66;67874;1274;1016351;-70
2023/12/08 12:15:14;;;;;;;;;;;;;;;2.80;100.00;99120.20;67912;1274;1016067;-71
2023/12/08 12:18:17;;;;;;;;;;;;;;;2.64;100.00;99115.91;67937;1274;1016344;-70
2023/12/08 12:21:19;;;;;;;;;;;;;;;2.51;100.00;99111.73;67885;1273;1016514;-71
2023/12/08 12:24:22;;;;;;;;;;;;;;;2.46;100.00;99109.61;67899;1274;1016371;-70
2023/12/08 12:27:24;;;;;;;;;;;;;;;2.48;100.00;99115.09;67869;1274;1016300;-70
2023/12/08 12:30:27;;;;;;;;;;;;;;;2.34;100.00;99120.60;67879;1274;1018566;-70
2023/12/08 12:33:30;;;;;;;;;;;;;;;2.21;100.00;99119.67;67891;1274;1016358;-70
2023/12/08 12:36:32;;;;;;;;;;;;;;;2.17;100.00;99115.43;67891;1274;1016457;-71
2023/12/08 12:39:35;;;;;;;;;;;;;;;2.10;100.00;99109.21;67916;1274;1016491;-71
2023/12/08 12:42:37;;;;;;;;;;;;;;;1.91;100.00;99105.66;67880;1274;1016315;-71
2023/12/08 12:45:40;;;;;;;;;;;;;;;1.78;100.00;99106.79;67899;1273;1016418;-70
2023/12/08 12:48:43;;;;;;;;;;;;;;;1.74;100.00;99106.87;67890;1274;1016748;-71
2023/12/08 12:51:46;;;;;;;;;;;;;;;1.81;100.00;99106.89;67923;1274;1017009;-71
2023/12/08 12:54:48;;;;;;;;;;;;;;;1.85;100.00;99097.16;67903;1274;1016350;-71
2023/12/08 12:57:51;;;;;;;;;;;;;;;2.00;100.00;99087.35;67872;1274;1016422;-71
2023/12/08 13:00:54;;;;;;;;;;;;;;;1.89;100.00;99087.74;67910;1274;1015919;-71
2023/12/08 13:03:57;;;;;;;;;;;;;;;1.86;100.00;99094.71;67865;1274;1016083;-71
2023/12/08 13:07:00;;;;;;;;;;;;;;;1.80;100.00;99091.91;67915;1274;1018857;-71
2023/12/08 13:10:04;;;;;;;;;;;;;;;1.70;100.00;99084.70;67900;1273;1016100;-70
2023/12/08 13:13:07;;;;;;;;;;;;;;;1.55;100.00;99084.30;67922;1274;1017006;-71
2023/12/08 13:16:10;;;;;;;;;;;;;;;1.59;100.00;99090.96;67939;1274;1016497;-71
2023/12/08 13:19:13;;;;;;;;;;;;;;;1.52;100.00;99090.42;67941;1274;1016019;-70
2023/12/08 13:22:16;;;;;;;;;;;;;;;1.48;100.00;99090.33;67920;1274;1016338;-71
2023/12/08 13:25:18;;;;;;;;;;;;;;;1.51;100.00;99096.45;67887;1274;1016068;-71
2023/12/08 13:28:21;;;;;;;;;;;;;;;1.58;100.00;99098.91;67942;1274;1016488;-70
2023/12/08 13:31:23;;;;;;;;;;;;;;;1.57;100.00;99099.79;67947;1274;1016419;-71
2023/12/08 13:34:26;;;;;;;;;;;;;;;1.33;100.00;99095.95;67909;1275;1016310;-71
2023/12/08 13:37:29;;;;;;;;;;;;;;;1.09;100.00;99102.41;67956;1274;1016391;-71
2023/12/08 13:40:31;;;;;;;;;;;;;;;0.86;100.00;99103.51;67915;1274;1016474;-71
2023/12/08 13:43:55;;;;;;;;;;;;;;;0.96;100.00;99104.18;67897;1274;1016321;-70
2023/12/08 13:46:57;;;;;;;;;;;;;;;1.08;100.00;99102.10;67931;1274;1016907;-70
2023/12/08 13:50:00;;;;;;;;;;;;;;;1.20;100.00;99101.71;67916;1274;1016314;-71
2023/12/08 13:53:03;;;;;;;;;;;;;;;1.31;100.00;99105.11;67926;1274;1016419;-70
2023/12/08 13:56:05;;;;;;;;;;;;;;;1.29;100.00;99098.27;67923;1274;1016192;-70
2023/12/08 13:59:08;;;;;;;;;;;;;;;1.18;100.00;99104.15;67962;1274;1016284;-70
2023/12/08 14:02:12;;;;;;;;;;;;;;;1.10;100.00;99108.77;67876;1274;1018671;-70
2023/12/08 14:05:15;;;;;;;;;;;;;;;0.93;100.00;99115.79;67923;1274;1016473;-70
2023/12/08 14:08:17;;;;;;;;;;;;;;;0.82;100.00;99116.99;67937;1273;1016407;-71
2023/12/08 14:11:20;;;;;;;;;;;;;;;0.74;100.00;99126.44;67914;1273;1016444;-71
2023/12/08 14:14:23;;;;;;;;;;;;;;;0.65;100.00;99123.30;67907;1274;1016351;-70
2023/12/08 14:17:25;;;;;;;;;;;;;;;0.63;100.00;99121.10;67942;1274;1016435;-71
2023/12/08 14:20:28;;;;;;;;;;;;;;;0.51;100.00;99119.73;67968;1275;1016693;-70
2023/12/08 14:23:30;;;;;;;;;;;;;;;0.38;100.00;99115.11;67924;1274;1016422;-70
2023/12/08 14:26:33;;;;;;;;;;;;;;;0.25;100.00;99115.48;67928;1274;1015879;-70
2023/12/08 14:29:36;;;;;;;;;;;;;;;0.12;100.00;99112.04;67924;1274;1016352;-70
2023/12/08 14:32:40;;;;;;;;;;;;;;;0.19;100.00;99110.06;67879;1274;1015828;-70
2023/12/08 14:35:43;;;;;;;;;;;;;;;0.25;100.00;99113.23;67881;1274;1016597;-71
2023/12/08 14:38:47;;;;;;;;;;;;;;;0.40;100.00;99113.88;67919;1273;1016495;-70
2023/12/08 14:41:49;;;;;;;;;;;;;;;0.28;100.00;99103.90;67915;1274;1016480;-71
2023/12/08 14:44:52;;;;;;;;;;;;;;;0.25;100.00;99104.81;67881;1274;1016325;-70
2023/12/08 14:47:55;;;;;;;;;;;;;;;0.08;100.00;99100.58;67914;1274;1016034;-70
2023/12/08 14:50:58;;;;;;;;;;;;;;;-0.03;100.00;99092.82;67894;1274;1016463;-71
2023/12/08 14:54:01;;;;;;;;;;;;;;;-0.06;100.00;99094.75;67870;1274;1016268;-70
2023/12/08 14:57:04;;;;;;;;;;;;;;;-0.09;100.00;99098.06;67880;1274;1016160;-70
2023/12/08 15:00:09;;;;;;;;;;;;;;;-0.12;100.00;99093.29;67921;1273;1016426;-70
2023/12/08 15:03:12;;;;;;;;;;;;;;;-0.16;100.00;99099.17;67912;1273;1016434;-70
2023/12/08 15:06:15;;;;;;;;;;;;;;;-0.21;100.00;99105.11;67859;1274;1016453;-71
2023/12/08 15:09:20;;;;;;;;;;;;;;;-0.22;100.00;99109.05;67934;1274;1016443;-70
2023/12/08 15:12:22;;;;;;;;;;;;;;;-0.20;100.00;99108.85;67889;1273;1016387;-70
2023/12/08 15:15:25;;;;;;;;;;;;;;;-0.19;100.00;99111.76;67868;1274;1019657;-70
2023/12/08 15:18:28;;;;;;;;;;;;;;;-0.19;100.00;99115.39;67945;1274;1016397;-70
2023/12/08 15:21:32;;;;;;;;;;;;;;;-0.21;100.00;99116.09;67857;1274;1016170;-70
2023/12/08 15:24:35;;;;;;;;;;;;;;;-0.23;100.00;99109.75;67896;1274;1016462;-70
2023/12/08 15:27:38;;;;;;;;;;;;;;;-0.25;100.00;99118.36;67881;1274;1016283;-70
2023/12/08 15:30:41;;;;;;;;;;;;;;;-0.20;100.00;99122.44;67877;1274;1016774;-70
2023/12/08 15:33:44;;;;;;;;;;;;;;;-0.11;100.00;99123.88;67907;1273;1016740;-70